Time;durP1;ratioP1;P1;durP2;ratioP2;P2;SDS_P1;SDS_P2;PMS_P1;PMS_P2;Temp;Humidity;BMP_temperature;BMP_pressure;BME280_temperature;BME280_humidity;BME280_pressure;Samples;Min_cycle;Max_cycle;Signal;HPM_P1;HPM_P2
2020/12/25 00:02:07;;;;;;;5.20;1.58;;;;;;;17.56;70.23;101708.94;4955335;29;20046;-72
2020/12/25 00:04:32;;;;;;;9.85;1.88;;;;;;;17.57;70.12;101702.69;4938577;29;20500;-71
2020/12/25 00:06:58;;;;;;;5.18;1.30;;;;;;;17.55;70.36;101700.03;4938395;29;20407;-71
2020/12/25 00:09:23;;;;;;;6.75;1.30;;;;;;;17.59;69.71;101706.28;4955098;29;20059;-72
2020/12/25 00:11:48;;;;;;;10.30;1.40;;;;;;;17.66;69.52;101708.06;4955309;29;20106;-72
2020/12/25 00:14:14;;;;;;;3.17;1.35;;;;;;;17.61;69.19;101709.84;4938408;29;20038;-72
2020/12/25 00:16:39;;;;;;;8.50;1.48;;;;;;;17.56;69.99;101706.25;4955283;29;20444;-72
2020/12/25 00:19:04;;;;;;;2.33;1.17;;;;;;;17.56;69.71;101707.16;4955122;29;20035;-72
2020/12/25 00:21:31;;;;;;;5.78;1.40;;;;;;;17.54;69.33;101704.47;4939968;29;20035;-72
2020/12/25 00:23:57;;;;;;;2.90;1.23;;;;;;;17.55;69.90;101705.34;4938057;29;20028;-72
2020/12/25 00:26:22;;;;;;;2.50;1.20;;;;;;;17.55;69.38;101700.03;4955749;29;20487;-72
2020/12/25 00:28:47;;;;;;;2.67;1.20;;;;;;;17.52;70.06;101700.88;4937904;29;20062;-72
2020/12/25 00:31:13;;;;;;;2.65;1.00;;;;;;;17.58;69.98;101705.38;4934706;29;20091;-72
2020/12/25 00:33:38;;;;;;;3.10;1.20;;;;;;;17.50;69.76;101716.03;4950720;29;20031;-72
2020/12/25 00:36:03;;;;;;;3.42;1.40;;;;;;;17.47;69.69;101709.78;4938127;29;20043;-72
2020/12/25 00:38:29;;;;;;;1.90;1.33;;;;;;;17.51;70.14;101714.25;4938066;29;20082;-72
2020/12/25 00:40:54;;;;;;;2.90;1.20;;;;;;;17.53;69.59;101709.78;4954852;29;20039;-72
2020/12/25 00:43:19;;;;;;;9.93;1.30;;;;;;;17.51;69.57;101712.50;4937394;29;20043;-72
2020/12/25 00:45:45;;;;;;;3.88;1.63;;;;;;;17.54;69.33;101709.81;4937703;29;20038;-72
2020/12/25 00:48:10;;;;;;;2.42;1.15;;;;;;;17.44;69.52;101710.69;4955003;29;20357;-72
2020/12/25 00:50:35;;;;;;;1.30;1.00;;;;;;;17.47;69.80;101713.34;4943007;29;20465;-72
2020/12/25 00:53:01;;;;;;;1.30;1.20;;;;;;;17.44;69.82;101715.13;4930515;29;20036;-72
2020/12/25 00:55:26;;;;;;;10.55;1.13;;;;;;;17.48;69.42;101716.91;4919095;29;20504;-72
2020/12/25 00:57:51;;;;;;;3.13;1.20;;;;;;;17.53;69.49;101710.69;4947066;29;20035;-72
2020/12/25 01:00:17;;;;;;;14.98;1.10;;;;;;;17.57;69.88;101708.03;4954108;29;20122;-72
2020/12/25 01:02:42;;;;;;;4.60;1.10;;;;;;;17.57;69.30;101708.94;4953673;29;20397;-72
2020/12/25 01:05:07;;;;;;;1.30;1.20;;;;;;;17.54;68.95;101708.91;4954826;29;20043;-72
2020/12/25 01:07:33;;;;;;;12.70;1.05;;;;;;;17.60;69.17;101711.59;4937711;29;20035;-72
2020/12/25 01:09:58;;;;;;;4.90;1.10;;;;;;;17.64;69.31;101710.75;4936954;29;20167;-72
2020/12/25 01:12:23;;;;;;;7.90;0.90;;;;;;;17.64;69.17;101704.53;4936789;29;20032;-72
2020/12/25 01:14:49;;;;;;;1.98;1.00;;;;;;;17.63;69.06;101708.09;4937079;29;20385;-72
2020/12/25 01:17:14;;;;;;;2.45;1.10;;;;;;;17.63;68.85;101703.63;4933894;29;20434;-72
2020/12/25 01:19:39;;;;;;;1.55;1.00;;;;;;;17.60;68.69;101702.69;4931148;29;20042;-72
2020/12/25 01:22:05;;;;;;;1.75;1.00;;;;;;;17.60;68.44;101697.34;4922859;29;20055;-72
2020/12/25 01:24:30;;;;;;;2.65;0.98;;;;;;;17.62;68.92;101695.63;4954212;29;20027;-72
2020/12/25 01:26:55;;;;;;;1.77;1.00;;;;;;;17.66;68.90;101697.38;4937094;29;20031;-72
2020/12/25 01:29:21;;;;;;;1.45;1.00;;;;;;;17.62;68.89;101684.94;4954281;29;20039;-72
2020/12/25 01:31:46;;;;;;;1.92;0.90;;;;;;;17.61;69.00;101689.38;4953910;29;20380;-72
2020/12/25 01:34:11;;;;;;;3.25;0.98;;;;;;;17.55;69.05;101689.34;4936448;29;20035;-72
2020/12/25 01:36:37;;;;;;;1.25;0.95;;;;;;;17.51;69.50;101687.56;4953776;29;20077;-72
2020/12/25 01:39:02;;;;;;;1.88;0.90;;;;;;;17.49;69.11;101684.00;4936553;29;20090;-72
2020/12/25 01:41:27;;;;;;;6.80;1.00;;;;;;;17.53;68.67;101681.31;4936322;29;20042;-72
2020/12/25 01:43:53;;;;;;;1.48;1.00;;;;;;;17.58;68.44;101678.69;4937153;29;20113;-72
2020/12/25 01:46:18;;;;;;;1.00;0.90;;;;;;;17.60;68.20;101678.66;4936876;29;20035;-72
2020/12/25 01:48:43;;;;;;;1.63;0.80;;;;;;;17.60;69.09;101671.53;4953465;29;20039;-72
2020/12/25 01:51:09;;;;;;;1.48;1.00;;;;;;;17.58;68.59;101665.31;4953587;29;20480;-72
2020/12/25 01:53:34;;;;;;;2.47;1.00;;;;;;;17.59;69.06;101666.22;4953269;28;20095;-72
2020/12/25 01:55:59;;;;;;;1.45;0.90;;;;;;;17.64;68.83;101669.81;4935834;29;20046;-72
2020/12/25 01:58:25;;;;;;;4.38;0.70;;;;;;;17.55;69.34;101665.31;4932715;29;20469;-72
2020/12/25 02:00:50;;;;;;;22.73;1.77;;;;;;;17.51;68.91;101671.53;4945347;29;20035;-72
2020/12/25 02:03:15;;;;;;;1.88;1.00;;;;;;;17.56;69.27;101668.88;4953145;28;20051;-72
2020/12/25 02:05:41;;;;;;;8.73;0.90;;;;;;;17.55;68.95;101670.66;4953707;29;20102;-72
2020/12/25 02:08:06;;;;;;;0.90;0.80;;;;;;;17.51;68.85;101666.19;4953193;29;20050;-72
2020/12/25 02:10:32;;;;;;;6.93;0.93;;;;;;;17.45;69.55;101672.44;4936053;29;20392;-72
2020/12/25 02:12:57;;;;;;;1.08;0.90;;;;;;;17.50;69.24;101672.44;4953213;29;20086;-72
2020/12/25 02:15:22;;;;;;;1.25;0.80;;;;;;;17.51;69.28;101682.22;4953253;29;20073;-72
2020/12/25 02:17:48;;;;;;;2.72;0.93;;;;;;;17.47;69.07;101670.63;4953223;29;20039;-72
2020/12/25 02:20:13;;;;;;;4.15;0.90;;;;;;;17.49;69.01;101668.88;4953324;29;20027;-72
2020/12/25 02:22:38;;;;;;;2.03;1.00;;;;;;;17.52;68.59;101674.19;4953004;29;20039;-72
2020/12/25 02:25:04;;;;;;;14.80;1.00;;;;;;;17.47;68.99;101665.28;4953260;29;20042;-72
2020/12/25 02:27:29;;;;;;;6.60;0.82;;;;;;;17.48;68.73;101661.75;4952864;29;20042;-72
2020/12/25 02:29:54;;;;;;;15.32;0.80;;;;;;;17.45;68.98;101661.75;4935492;29;20066;-71
2020/12/25 02:32:20;;;;;;;1.73;0.70;;;;;;;17.48;68.56;101664.41;4953095;29;20039;-72
2020/12/25 02:34:45;;;;;;;2.78;0.90;;;;;;;17.53;68.19;101669.75;4952747;29;20043;-72
2020/12/25 02:37:10;;;;;;;1.60;0.93;;;;;;;17.54;68.34;101663.53;4953497;29;20027;-73
2020/12/25 02:39:36;;;;;;;1.38;0.68;;;;;;;17.47;68.51;101670.63;4953218;29;20043;-73
2020/12/25 02:42:01;;;;;;;1.63;0.77;;;;;;;17.48;68.80;101669.75;4935151;29;20031;-73
2020/12/25 02:44:26;;;;;;;0.90;0.68;;;;;;;17.43;68.63;101676.88;4953009;29;20054;-72
2020/12/25 02:46:52;;;;;;;6.18;0.90;;;;;;;17.42;68.24;101676.84;4952771;29;20051;-73
2020/12/25 02:49:17;;;;;;;1.73;0.60;;;;;;;17.46;67.67;101674.19;4953253;29;20032;-73
2020/12/25 02:51:42;;;;;;;3.13;0.70;;;;;;;17.39;68.20;101679.53;4952097;29;20419;-73
2020/12/25 02:54:08;;;;;;;2.05;0.98;;;;;;;17.42;68.54;101674.19;4952503;29;20397;-73
2020/12/25 02:56:33;;;;;;;1.27;0.70;;;;;;;17.42;68.33;101684.88;4952811;29;20039;-72
2020/12/25 02:58:58;;;;;;;1.20;0.80;;;;;;;17.42;68.56;101675.06;4952672;29;20096;-72
2020/12/25 03:01:24;;;;;;;6.75;0.90;;;;;;;17.40;68.01;101678.63;4952180;28;20055;-73
2020/12/25 03:03:49;;;;;;;1.63;0.77;;;;;;;17.47;67.82;101675.06;4952735;29;20035;-72
2020/12/25 03:06:14;;;;;;;0.95;0.77;;;;;;;17.40;68.31;101673.28;4954704;28;20031;-72
2020/12/25 03:08:40;;;;;;;0.88;0.70;;;;;;;17.46;68.25;101678.63;4955888;29;20034;-72
2020/12/25 03:11:05;;;;;;;2.58;0.80;;;;;;;17.45;68.13;101685.78;4956572;29;20031;-72
2020/12/25 03:13:30;;;;;;;3.22;0.80;;;;;;;17.51;67.51;101682.22;4956120;29;20031;-72
2020/12/25 03:15:56;;;;;;;3.78;0.70;;;;;;;17.46;67.93;101686.63;4939566;29;20361;-72
2020/12/25 03:18:21;;;;;;;0.82;0.80;;;;;;;17.46;67.94;101684.88;4956099;29;20030;-72
2020/12/25 03:20:46;;;;;;;1.95;0.88;;;;;;;17.46;67.80;101687.53;4956754;29;20117;-74
2020/12/25 03:23:12;;;;;;;25.10;1.00;;;;;;;17.51;67.69;101691.13;4956452;29;20051;-72
2020/12/25 03:25:37;;;;;;;2.95;0.70;;;;;;;17.50;67.72;101686.66;4956271;29;20070;-72
2020/12/25 03:28:02;;;;;;;8.75;0.93;;;;;;;17.49;67.62;101689.31;4939125;29;20042;-72
2020/12/25 03:30:28;;;;;;;2.58;0.77;;;;;;;17.44;67.97;101693.78;4956061;29;20557;-72
2020/12/25 03:32:53;;;;;;;6.20;0.68;;;;;;;17.38;67.82;101688.44;4955943;29;20063;-72
2020/12/25 03:35:18;;;;;;;5.38;0.60;;;;;;;17.38;68.18;101686.66;4956183;29;20065;-71
2020/12/25 03:37:44;;;;;;;1.88;0.60;;;;;;;17.37;68.33;101690.19;4956419;29;20053;-72
2020/12/25 03:40:09;;;;;;;6.68;0.80;;;;;;;17.37;67.58;101684.88;4935332;29;20070;-72
2020/12/25 03:42:34;;;;;;;2.55;0.90;;;;;;;17.34;67.67;101697.28;4925822;29;20109;-72
2020/12/25 03:44:59;;;;;;;0.70;0.60;;;;;;;17.43;67.41;101700.00;4955649;29;20444;-72
2020/12/25 03:47:25;;;;;;;0.77;0.70;;;;;;;17.36;67.48;101703.53;4938635;29;20035;-72
2020/12/25 03:49:50;;;;;;;5.55;0.80;;;;;;;17.32;67.64;101694.63;4955730;29;20432;-72
2020/12/25 03:52:16;;;;;;;1.15;0.70;;;;;;;17.36;67.73;101703.53;4955836;29;20035;-72
2020/12/25 03:54:41;;;;;;;2.17;0.90;;;;;;;17.32;67.75;101691.97;4955623;29;20441;-72
2020/12/25 03:57:06;;;;;;;2.60;0.70;;;;;;;17.38;67.43;101712.44;4955666;29;20042;-72
2020/12/25 03:59:32;;;;;;;25.65;0.90;;;;;;;17.44;67.73;101716.03;4955241;29;20035;-72
2020/12/25 04:01:57;;;;;;;8.88;0.77;;;;;;;17.60;67.37;101719.59;4937972;29;20078;-71
2020/12/25 04:04:22;;;;;;;25.75;1.27;;;;;;;17.56;66.77;101720.50;4938330;29;20074;-72
2020/12/25 04:06:48;;;;;;;9.00;1.00;;;;;;;17.50;66.69;101723.16;4956041;29;20042;-71
2020/12/25 04:09:13;;;;;;;10.80;0.70;;;;;;;17.40;67.12;101724.00;4955389;29;20038;-71
2020/12/25 04:11:38;;;;;;;7.32;0.88;;;;;;;17.40;67.27;101719.56;4955078;29;20039;-72
2020/12/25 04:14:04;;;;;;;11.38;0.75;;;;;;;17.44;66.87;101728.47;4938364;29;20055;-72
2020/12/25 04:16:29;;;;;;;9.85;0.80;;;;;;;17.38;67.20;101728.47;4955652;29;20424;-72
2020/12/25 04:18:54;;;;;;;10.23;0.90;;;;;;;17.35;67.88;101726.66;4954077;28;20361;-71
2020/12/25 04:21:19;;;;;;;2.35;0.77;;;;;;;17.37;67.54;101722.22;4949711;29;20134;-72
2020/12/25 04:23:45;;;;;;;10.30;0.73;;;;;;;17.42;67.26;101720.47;4944334;29;20042;-72
2020/12/25 04:26:10;;;;;;;3.15;0.63;;;;;;;17.40;67.42;101724.91;4954997;29;20039;-72
2020/12/25 04:28:35;;;;;;;0.70;0.65;;;;;;;17.43;67.58;101721.34;4937847;29;20027;-72
2020/12/25 04:31:01;;;;;;;4.30;0.68;;;;;;;17.43;67.60;101738.25;4937994;29;20097;-72
2020/12/25 04:33:26;;;;;;;2.55;0.75;;;;;;;17.43;67.33;101735.59;4954858;29;20038;-71
2020/12/25 04:35:51;;;;;;;0.85;0.60;;;;;;;17.50;66.76;101729.38;4937995;29;20043;-72
2020/12/25 04:38:17;;;;;;;4.57;0.60;;;;;;;17.39;67.32;101739.13;4937824;29;20023;-72
2020/12/25 04:40:42;;;;;;;1.70;0.57;;;;;;;17.36;67.69;101735.56;4954626;29;20122;-72
2020/12/25 04:43:08;;;;;;;1.77;0.60;;;;;;;17.50;66.99;101745.41;4954603;29;20574;-72
2020/12/25 04:45:33;;;;;;;5.18;0.63;;;;;;;17.47;66.85;101740.03;4955079;29;20384;-72
2020/12/25 04:47:59;;;;;;;8.85;0.60;;;;;;;17.40;66.96;101742.69;4954585;29;20058;-72
2020/12/25 04:50:24;;;;;;;2.15;0.65;;;;;;;17.44;66.79;101747.16;4938595;29;20135;-71
2020/12/25 04:52:49;;;;;;;0.55;0.55;;;;;;;17.41;67.37;101742.69;4953490;29;20034;-72
2020/12/25 04:55:15;;;;;;;2.75;0.70;;;;;;;17.37;66.62;101746.25;4954648;29;20035;-72
2020/12/25 04:57:40;;;;;;;1.63;0.47;;;;;;;17.38;67.42;101747.16;4954745;29;20119;-71
2020/12/25 05:00:05;;;;;;;1.52;0.70;;;;;;;17.36;66.69;101751.59;4937657;29;20031;-72
2020/12/25 05:02:31;;;;;;;0.70;0.50;;;;;;;17.41;67.04;101744.47;4954044;29;20063;-71
2020/12/25 05:04:56;;;;;;;0.90;0.60;;;;;;;17.39;66.71;101744.47;4934203;29;20032;-71
2020/12/25 05:07:21;;;;;;;0.82;0.55;;;;;;;17.44;66.98;101740.06;4924878;29;20658;-72
2020/12/25 05:09:47;;;;;;;1.20;0.60;;;;;;;17.43;66.27;101745.38;4937070;29;20027;-72
2020/12/25 05:12:12;;;;;;;1.38;0.60;;;;;;;17.34;66.99;101746.22;4936994;29;20484;-71
2020/12/25 05:14:37;;;;;;;0.73;0.60;;;;;;;17.39;66.61;101755.13;4936867;29;20035;-72
2020/12/25 05:17:03;;;;;;;1.50;0.52;;;;;;;17.48;66.18;101754.28;4954428;29;20082;-72
2020/12/25 05:19:28;;;;;;;0.90;0.70;;;;;;;17.40;66.66;101751.59;4954543;29;20563;-72
2020/12/25 05:21:54;;;;;;;2.63;0.50;;;;;;;17.39;66.97;101756.94;4933900;29;20045;-71
2020/12/25 05:24:19;;;;;;;1.38;0.55;;;;;;;17.35;66.46;101753.34;4949288;29;20113;-72
2020/12/25 05:26:44;;;;;;;0.63;0.50;;;;;;;17.30;67.16;101748.88;4953668;29;20058;-72
2020/12/25 05:29:10;;;;;;;0.85;0.50;;;;;;;17.28;66.71;101747.97;4953763;28;20074;-72
2020/12/25 05:31:35;;;;;;;15.60;0.65;;;;;;;17.30;67.10;101751.56;4953940;29;20511;-72
2020/12/25 05:34:00;;;;;;;3.53;0.50;;;;;;;17.40;67.01;101761.38;4952885;29;20039;-72
2020/12/25 05:36:26;;;;;;;19.35;0.80;;;;;;;17.43;66.13;101764.97;4954318;29;20428;-71
2020/12/25 05:38:51;;;;;;;1.65;0.52;;;;;;;17.40;66.15;101762.28;4954193;29;20587;-71
2020/12/25 05:41:16;;;;;;;1.30;0.60;;;;;;;17.36;66.39;101773.84;4953838;29;20121;-71
2020/12/25 05:43:42;;;;;;;2.03;0.50;;;;;;;17.32;66.38;101772.03;4953097;29;20126;-72
2020/12/25 05:46:07;;;;;;;1.42;0.55;;;;;;;17.29;67.07;101772.03;4933252;29;20039;-71
2020/12/25 05:48:32;;;;;;;5.25;0.70;;;;;;;17.32;67.01;101776.50;4940864;29;20035;-71
2020/12/25 05:50:58;;;;;;;4.35;0.60;;;;;;;17.32;67.29;101782.72;4953661;29;20027;-71
2020/12/25 05:53:23;;;;;;;5.15;0.50;;;;;;;17.27;67.00;101781.78;4953198;29;20514;-72
2020/12/25 05:55:48;;;;;;;0.90;0.50;;;;;;;17.25;67.06;101786.25;4936092;29;20565;-71
2020/12/25 05:58:14;;;;;;;0.93;0.50;;;;;;;17.27;65.99;101788.91;4953395;29;20043;-71
2020/12/25 06:00:39;;;;;;;1.63;0.50;;;;;;;17.26;66.35;101796.03;4952914;29;20047;-71
2020/12/25 06:03:04;;;;;;;1.52;0.50;;;;;;;17.26;66.32;101787.16;4932729;29;20051;-72
2020/12/25 06:05:30;;;;;;;1.50;0.60;;;;;;;17.26;66.55;101792.47;4933073;29;20397;-71
2020/12/25 06:07:55;;;;;;;0.52;0.50;;;;;;;17.26;66.46;101795.16;4934154;29;20450;-71
2020/12/25 06:10:21;;;;;;;0.70;0.55;;;;;;;17.26;66.63;101789.81;4934180;29;20036;-72
2020/12/25 06:12:46;;;;;;;0.95;0.50;;;;;;;17.26;66.46;101792.47;4933449;29;20664;-72
2020/12/25 06:15:11;;;;;;;0.55;0.50;;;;;;;17.29;66.58;101795.16;4934219;29;20094;-72
2020/12/25 06:17:37;;;;;;;0.70;0.50;;;;;;;17.29;65.88;101793.38;4934314;29;20039;-72
2020/12/25 06:20:02;;;;;;;0.95;0.50;;;;;;;17.30;65.72;101799.59;4933924;29;20361;-72
2020/12/25 06:22:27;;;;;;;1.10;0.40;;;;;;;17.29;66.38;101796.03;4933670;29;20169;-72
2020/12/25 06:24:53;;;;;;;4.55;0.65;;;;;;;17.32;65.71;101803.19;4934089;28;20066;-72
2020/12/25 06:27:18;;;;;;;0.50;0.50;;;;;;;17.34;66.06;101810.28;4933904;29;20053;-72
2020/12/25 06:29:43;;;;;;;0.70;0.50;;;;;;;17.38;66.03;101808.53;4934125;29;20424;-72
2020/12/25 06:32:09;;;;;;;0.77;0.50;;;;;;;17.31;66.29;101807.63;4933453;29;20061;-72
2020/12/25 06:34:34;;;;;;;16.25;0.60;;;;;;;17.40;65.28;101815.66;4933554;29;20036;-71
2020/12/25 06:36:59;;;;;;;0.93;0.60;;;;;;;17.55;65.02;101812.16;4934107;29;20054;-72
2020/12/25 06:39:25;;;;;;;12.80;0.50;;;;;;;17.46;65.73;101812.13;4931993;29;20070;-72
2020/12/25 06:41:50;;;;;;;10.35;0.63;;;;;;;17.58;64.97;101811.31;4941263;29;20035;-71
2020/12/25 06:44:15;;;;;;;1.58;0.57;;;;;;;17.53;66.17;101809.47;4933448;29;20040;-72
2020/12/25 06:46:41;;;;;;;12.73;0.90;;;;;;;17.49;66.30;101813.03;4932177;29;20071;-72
2020/12/25 06:49:06;;;;;;;22.15;0.90;;;;;;;17.63;65.60;101804.22;4933639;29;20051;-72
2020/12/25 06:51:31;;;;;;;30.23;0.98;;;;;;;17.61;66.13;101806.00;4934404;29;20074;-73
2020/12/25 06:53:57;;;;;;;8.82;0.60;;;;;;;17.57;66.25;101810.41;4924334;29;20504;-73
2020/12/25 06:56:22;;;;;;;12.65;0.80;;;;;;;17.51;65.95;101805.94;4932355;29;20396;-73
2020/12/25 06:58:48;;;;;;;19.13;0.75;;;;;;;17.50;65.51;101809.50;4928819;29;20027;-74
2020/12/25 07:01:13;;;;;;;9.38;0.63;;;;;;;17.53;66.08;101813.94;4922070;29;20035;-73
2020/12/25 07:03:38;;;;;;;13.00;1.13;;;;;;;17.53;65.80;101813.94;4952843;29;20646;-73
2020/12/25 07:06:04;;;;;;;0.98;0.57;;;;;;;17.58;65.29;101816.66;4952572;29;20075;-73
2020/12/25 07:08:29;;;;;;;3.78;0.57;;;;;;;17.53;65.49;101820.16;4935288;29;20039;-73
2020/12/25 07:10:54;;;;;;;3.70;0.60;;;;;;;17.54;65.23;101824.63;4935527;29;20098;-73
2020/12/25 07:13:20;;;;;;;2.80;0.60;;;;;;;17.61;64.87;101822.00;4931439;29;20042;-74
2020/12/25 07:15:45;;;;;;;3.10;0.65;;;;;;;17.62;65.01;101823.81;4951530;29;20037;-73
2020/12/25 07:18:10;;;;;;;1.10;0.50;;;;;;;17.61;64.88;101827.34;4935108;29;20451;-73
2020/12/25 07:20:36;;;;;;;6.03;0.70;;;;;;;17.63;64.28;101825.59;4952771;29;20027;-74
2020/12/25 07:23:01;;;;;;;1.83;0.40;;;;;;;17.58;64.24;101814.88;4935163;29;20031;-73
2020/12/25 07:25:27;;;;;;;5.40;0.73;;;;;;;17.64;64.65;101817.59;4952408;29;20054;-71
2020/12/25 07:27:55;;;;;;;6.90;0.80;;;;;;;17.58;64.95;101817.53;4934790;29;20555;-71
2020/12/25 07:30:20;;;;;;;2.95;0.50;;;;;;;17.56;65.13;101834.44;4935100;29;20098;-72
2020/12/25 07:32:45;;;;;;;25.23;1.10;;;;;;;17.62;64.99;101829.13;4950437;28;20456;-73
2020/12/25 07:35:11;;;;;;;11.00;1.20;;;;;;;17.66;64.49;101825.59;4952070;29;20042;-73
2020/12/25 07:37:36;;;;;;;12.40;1.42;;;;;;;17.62;64.76;101831.81;4935547;29;20035;-74
2020/12/25 07:40:01;;;;;;;11.70;1.10;;;;;;;17.64;64.12;101828.28;4952536;29;20094;-74
2020/12/25 07:42:26;;;;;;;3.97;1.00;;;;;;;17.67;64.61;101830.94;4952115;29;20082;-74
2020/12/25 07:44:52;;;;;;;8.40;1.25;;;;;;;17.70;63.88;101832.75;4952434;29;20043;-74
2020/12/25 07:47:17;;;;;;;18.70;1.30;;;;;;;17.63;64.04;101833.59;4933144;29;20048;-73
2020/12/25 07:49:43;;;;;;;13.52;1.00;;;;;;;17.64;64.47;101828.28;4934068;29;20400;-73
2020/12/25 07:52:08;;;;;;;20.15;1.23;;;;;;;17.75;64.96;101833.66;4933338;29;20036;-74
2020/12/25 07:54:33;;;;;;;53.85;1.83;;;;;;;17.96;64.63;101830.16;4934797;29;20589;-71
2020/12/25 07:56:59;;;;;;;34.42;2.13;;;;;;;17.81;65.28;101834.56;4954682;29;20078;-71
2020/12/25 07:59:24;;;;;;;20.80;1.90;;;;;;;17.80;65.79;101835.44;4938100;29;20115;-72
2020/12/25 08:01:49;;;;;;;51.08;2.42;;;;;;;17.85;66.28;101836.34;4956164;29;20085;-73
2020/12/25 08:04:15;;;;;;;87.72;3.22;;;;;;;17.89;66.88;101842.59;4955547;29;20086;-73
2020/12/25 08:06:40;;;;;;;54.63;2.40;;;;;;;17.82;65.91;101839.00;4954267;29;20101;-71
2020/12/25 08:09:05;;;;;;;45.53;3.03;;;;;;;17.71;65.80;101830.09;4940071;29;20035;-72
2020/12/25 08:11:31;;;;;;;36.22;2.15;;;;;;;17.68;66.19;101839.84;4937498;29;20032;-71
2020/12/25 08:13:56;;;;;;;19.08;1.60;;;;;;;17.65;65.93;101840.75;4955420;29;20493;-72
2020/12/25 08:16:21;;;;;;;15.43;2.05;;;;;;;17.62;65.97;101834.47;4938679;29;20027;-72
2020/12/25 08:18:47;;;;;;;12.20;1.77;;;;;;;17.55;65.83;101833.53;4935044;29;20048;-71
2020/12/25 08:21:12;;;;;;;19.73;1.77;;;;;;;17.55;65.66;101833.53;4951994;29;20043;-72
2020/12/25 08:23:38;;;;;;;8.68;1.20;;;;;;;17.54;66.32;101837.97;4955361;29;20042;-73
2020/12/25 08:26:03;;;;;;;18.27;1.38;;;;;;;17.56;65.60;101837.09;4955639;29;20492;-73
2020/12/25 08:28:28;;;;;;;13.18;1.30;;;;;;;17.54;66.27;101842.44;4938322;29;20388;-72
2020/12/25 08:30:54;;;;;;;6.57;1.45;;;;;;;17.53;66.48;101829.94;4937649;29;20619;-73
2020/12/25 08:33:19;;;;;;;8.00;1.10;;;;;;;17.51;66.41;101835.31;4937590;29;20392;-73
2020/12/25 08:35:44;;;;;;;11.00;2.00;;;;;;;17.54;66.52;101829.97;4954830;29;20110;-72
2020/12/25 08:38:10;;;;;;;9.82;1.10;;;;;;;17.52;66.40;101831.72;4954702;29;20512;-71
2020/12/25 08:40:36;;;;;;;12.73;1.27;;;;;;;17.51;66.30;101831.75;4954628;29;20023;-72
2020/12/25 08:43:02;;;;;;;13.40;1.00;;;;;;;17.51;66.38;101832.66;4952799;28;20023;-73
2020/12/25 08:45:27;;;;;;;14.85;1.30;;;;;;;17.52;66.42;101833.53;4937661;29;20403;-71
2020/12/25 08:47:52;;;;;;;6.13;0.90;;;;;;;17.54;65.85;101832.63;4954854;29;20094;-71
2020/12/25 08:50:18;;;;;;;12.57;1.42;;;;;;;17.53;66.35;101829.94;4954727;29;20035;-71
2020/12/25 08:52:43;;;;;;;12.13;1.33;;;;;;;17.53;65.95;101832.63;4936606;29;20051;-71
2020/12/25 08:55:08;;;;;;;6.38;1.45;;;;;;;17.55;66.31;101833.53;4954056;28;20041;-71
2020/12/25 08:57:34;;;;;;;16.10;1.40;;;;;;;17.53;66.03;101829.94;4954345;29;20114;-71
2020/12/25 08:59:59;;;;;;;8.00;1.38;;;;;;;17.50;66.03;101833.53;4954193;29;20043;-73
2020/12/25 09:02:25;;;;;;;8.50;1.63;;;;;;;17.51;66.10;101824.63;4948159;29;20092;-73
2020/12/25 09:04:50;;;;;;;7.10;1.58;;;;;;;17.49;66.23;101820.16;4935988;29;20460;-74
2020/12/25 09:07:15;;;;;;;7.50;1.60;;;;;;;17.48;65.85;101821.03;4932674;29;20067;-73
2020/12/25 09:09:41;;;;;;;4.30;1.40;;;;;;;17.46;65.64;101818.34;4943274;28;20063;-74
2020/12/25 09:12:06;;;;;;;6.70;1.77;;;;;;;17.46;65.72;101823.69;4933522;29;20464;-71
2020/12/25 09:14:31;;;;;;;5.25;1.85;;;;;;;17.43;66.19;101822.81;4936830;29;20370;-71
2020/12/25 09:16:57;;;;;;;4.03;2.03;;;;;;;17.48;65.58;101821.03;4954631;29;20494;-76
2020/12/25 09:19:22;;;;;;;7.68;1.75;;;;;;;17.49;65.57;101823.72;4954709;29;20066;-73
2020/12/25 09:21:47;;;;;;;14.75;1.95;;;;;;;17.48;65.15;101819.25;4936498;29;20038;-75
2020/12/25 09:24:13;;;;;;;11.80;2.13;;;;;;;17.47;65.97;101814.81;4953915;29;20046;-73
2020/12/25 09:26:38;;;;;;;3.35;1.45;;;;;;;17.44;65.82;101817.47;4953061;29;20090;-72
2020/12/25 09:29:03;;;;;;;7.93;1.75;;;;;;;17.44;65.78;101816.59;4955507;28;20027;-75
2020/12/25 09:31:29;;;;;;;3.25;1.60;;;;;;;17.43;66.13;101807.69;4935957;29;20035;-75
2020/12/25 09:33:54;;;;;;;10.45;2.15;;;;;;;17.43;65.86;101805.00;4953211;29;20027;-75
2020/12/25 09:36:19;;;;;;;5.25;1.73;;;;;;;17.47;65.04;101808.56;4953547;29;20031;-75
2020/12/25 09:38:45;;;;;;;3.67;1.63;;;;;;;17.46;65.12;101793.44;4936862;29;20085;-75
2020/12/25 09:41:10;;;;;;;2.72;1.38;;;;;;;17.46;65.70;101794.31;4936087;29;20034;-74
2020/12/25 09:43:35;;;;;;;5.03;2.03;;;;;;;17.44;64.97;101787.22;4952819;29;20035;-75
2020/12/25 09:46:01;;;;;;;6.22;1.67;;;;;;;17.44;65.07;101787.22;4936650;29;20043;-75
2020/12/25 09:48:26;;;;;;;5.85;1.58;;;;;;;17.45;64.98;101784.56;4954300;29;20038;-76
2020/12/25 09:50:51;;;;;;;8.25;1.50;;;;;;;17.45;65.77;101776.56;4954103;29;20087;-76
2020/12/25 09:53:17;;;;;;;5.05;1.63;;;;;;;17.47;65.09;101779.19;4953881;29;20054;-75
2020/12/25 09:55:43;;;;;;;4.43;1.90;;;;;;;17.45;65.04;101778.31;4937051;29;20078;-76
2020/12/25 09:58:08;;;;;;;2.80;1.83;;;;;;;17.44;65.62;101772.09;4936119;29;20122;-75
2020/12/25 10:00:33;;;;;;;5.85;2.22;;;;;;;17.43;65.61;101775.66;4953099;29;20105;-74
2020/12/25 10:02:59;;;;;;;4.22;1.70;;;;;;;17.42;66.05;101771.19;4953627;29;20407;-74
2020/12/25 10:05:24;;;;;;;6.15;1.75;;;;;;;17.48;65.48;101772.97;4953592;29;20074;-73
2020/12/25 10:07:52;;;;;;;5.05;2.25;;;;;;;17.47;65.95;101764.06;4953111;29;20023;-73
2020/12/25 10:10:17;;;;;;;9.15;1.75;;;;;;;17.46;65.78;101766.72;4935649;29;20035;-74
2020/12/25 10:12:42;;;;;;;3.75;1.83;;;;;;;17.47;65.74;101772.09;4953781;29;20039;-74
2020/12/25 10:15:08;;;;;;;6.97;1.98;;;;;;;17.48;66.50;101760.53;4952641;28;20031;-76
2020/12/25 10:17:33;;;;;;;5.90;2.15;;;;;;;17.48;66.08;101756.97;4936467;29;20051;-75
2020/12/25 10:19:58;;;;;;;3.40;1.55;;;;;;;17.47;66.59;101756.06;4952920;29;20038;-74
2020/12/25 10:22:24;;;;;;;3.08;1.92;;;;;;;17.50;66.73;101755.19;4953379;29;20043;-74
2020/12/25 10:24:49;;;;;;;6.40;2.15;;;;;;;17.49;66.51;101751.63;4952318;29;20106;-74
2020/12/25 10:27:15;;;;;;;14.10;2.20;;;;;;;17.50;66.18;101758.75;4936035;29;20035;-74
2020/12/25 10:29:40;;;;;;;5.25;2.28;;;;;;;17.49;66.24;101753.41;4936648;29;20106;-74
2020/12/25 10:32:05;;;;;;;3.40;2.22;;;;;;;17.50;66.33;101748.09;4935187;29;20035;-75
2020/12/25 10:34:31;;;;;;;4.78;2.08;;;;;;;17.50;66.28;101745.41;4951864;29;20107;-75
2020/12/25 10:36:57;;;;;;;9.70;2.05;;;;;;;17.50;66.56;101739.19;4935811;29;20135;-76
2020/12/25 10:39:22;;;;;;;4.25;2.20;;;;;;;17.49;66.70;101740.94;4953287;29;20035;-77
2020/12/25 10:41:48;;;;;;;7.65;2.10;;;;;;;17.49;67.19;101751.63;4933218;29;20043;-77
2020/12/25 10:44:13;;;;;;;10.55;2.30;;;;;;;17.50;67.21;101741.84;4921328;29;20040;-77
2020/12/25 10:46:39;;;;;;;5.45;2.25;;;;;;;17.50;67.60;101734.72;4943882;29;20118;-76
2020/12/25 10:49:04;;;;;;;5.28;2.58;;;;;;;17.52;67.32;101732.94;4951896;29;20114;-75
2020/12/25 10:51:29;;;;;;;8.05;2.65;;;;;;;17.53;67.20;101737.38;4948853;28;20035;-75
2020/12/25 10:53:55;;;;;;;11.93;2.55;;;;;;;17.54;67.77;101731.16;4936478;29;20039;-71
2020/12/25 10:56:20;;;;;;;40.25;3.42;;;;;;;17.63;67.29;101733.00;4948235;28;20440;-72
2020/12/25 10:58:45;;;;;;;54.65;4.25;;;;;;;17.68;68.17;101730.34;4942670;28;20414;-71
2020/12/25 11:01:11;;;;;;;45.60;4.63;;;;;;;17.64;67.60;101725.91;4918294;28;20039;-71
2020/12/25 11:03:36;;;;;;;36.92;4.07;;;;;;;17.53;67.88;101732.06;4930081;29;20043;-70
2020/12/25 11:06:01;;;;;;;30.48;4.40;;;;;;;17.51;68.48;101725.84;4931212;29;20063;-71
2020/12/25 11:08:27;;;;;;;31.35;5.43;;;;;;;17.50;68.48;101720.50;4921884;29;20035;-71
2020/12/25 11:10:52;;;;;;;32.10;5.40;;;;;;;17.48;68.26;101712.47;4944368;28;20545;-71
2020/12/25 11:13:17;;;;;;;31.27;5.18;;;;;;;17.49;68.56;101711.59;4952113;29;20397;-71
2020/12/25 11:15:43;;;;;;;32.70;6.82;;;;;;;17.48;68.21;101711.56;4931230;29;20039;-71